createdAt,value
2022-10-11T00:01:02.752Z,99.90
2022-10-11T00:03:29.675Z,99.90
2022-10-11T00:05:56.646Z,99.90
2022-10-11T00:08:23.635Z,99.90
2022-10-11T00:10:57.648Z,99.90
2022-10-11T00:13:24.781Z,99.90
2022-10-11T00:15:51.665Z,99.90
2022-10-11T00:18:18.665Z,99.90
2022-10-11T00:20:45.779Z,99.90
2022-10-11T00:23:12.721Z,99.90
2022-10-11T00:25:39.605Z,99.90
2022-10-11T00:28:06.607Z,99.90
2022-10-11T00:30:34.050Z,99.90
2022-10-11T00:33:01.051Z,99.90
2022-10-11T00:35:27.908Z,99.90
2022-10-11T00:37:56.040Z,99.90
2022-10-11T00:40:23.014Z,99.90
2022-10-11T00:42:50.524Z,99.90
2022-10-11T00:45:26.986Z,99.90
2022-10-11T00:47:57.325Z,99.90
2022-10-11T00:50:24.817Z,99.90
2022-10-11T00:52:56.288Z,99.90
2022-10-11T00:55:23.135Z,99.90
2022-10-11T00:57:53.512Z,99.90
2022-10-11T01:00:20.653Z,99.90
2022-10-11T01:02:49.626Z,99.90
2022-10-11T01:05:32.451Z,99.90
2022-10-11T01:07:59.737Z,99.90
2022-10-11T01:10:27.178Z,99.90
2022-10-11T01:13:04.796Z,99.90
2022-10-11T01:15:49.300Z,99.90
2022-10-11T01:18:23.465Z,99.90
2022-10-11T01:21:09.074Z,99.90
2022-10-11T01:23:55.129Z,99.90
2022-10-11T01:26:40.749Z,99.90
2022-10-11T01:29:26.887Z,99.90
2022-10-11T01:32:12.870Z,99.90
2022-10-11T01:34:56.179Z,99.90
2022-10-11T01:37:41.822Z,99.90
2022-10-11T01:40:13.033Z,99.90
2022-10-11T01:42:40.307Z,99.90
2022-10-11T01:45:12.664Z,99.90
2022-10-11T01:47:39.509Z,99.90
2022-10-11T01:50:08.271Z,99.90
2022-10-11T01:52:37.436Z,99.90
2022-10-11T01:55:13.593Z,99.90
2022-10-11T01:57:46.540Z,99.90
2022-10-11T02:00:13.421Z,99.90
2022-10-11T02:02:59.167Z,99.90
2022-10-11T02:05:44.802Z,99.90
2022-10-11T02:08:20.860Z,99.90
2022-10-11T02:10:53.065Z,99.90
2022-10-11T02:13:23.196Z,99.90
2022-10-11T02:15:50.051Z,99.90
2022-10-11T02:18:18.510Z,99.90
2022-10-11T02:20:45.398Z,99.90
2022-10-11T02:23:13.622Z,99.90
2022-10-11T02:25:40.513Z,99.90
2022-10-11T02:28:09.588Z,99.90
2022-10-11T02:30:36.543Z,99.90
2022-10-11T02:33:03.795Z,99.90
2022-10-11T02:35:31.026Z,99.90
2022-10-11T02:37:59.376Z,99.90
2022-10-11T02:40:29.844Z,99.90
2022-10-11T02:42:59.973Z,99.90
2022-10-11T02:45:32.934Z,99.90
2022-10-11T02:47:59.781Z,99.90
2022-10-11T02:50:26.875Z,99.90
2022-10-11T02:52:53.779Z,99.90
2022-10-11T02:55:20.749Z,99.90
2022-10-11T02:57:47.664Z,99.90
2022-10-11T03:00:14.766Z,99.90
2022-10-11T03:02:41.679Z,99.90
2022-10-11T03:05:08.665Z,99.90
2022-10-11T03:07:35.558Z,99.90
2022-10-11T03:10:02.582Z,99.90
2022-10-11T03:12:29.430Z,99.90
2022-10-11T03:14:57.359Z,99.90
2022-10-11T03:17:36.205Z,99.90
2022-10-11T03:20:04.755Z,99.90
2022-10-11T03:22:31.590Z,99.90
2022-10-11T03:25:03.330Z,99.90
2022-10-11T03:27:31.238Z,99.90
2022-10-11T03:29:58.138Z,99.90
2022-10-11T03:32:25.089Z,99.90
2022-10-11T03:34:51.966Z,99.90
2022-10-11T03:37:19.107Z,99.90
2022-10-11T03:39:46.081Z,99.90
2022-10-11T03:42:13.352Z,99.90
2022-10-11T03:44:41.795Z,99.90
2022-10-11T03:47:08.695Z,99.90
2022-10-11T03:49:38.684Z,99.90
2022-10-11T03:52:09.258Z,99.90
2022-10-11T03:54:36.187Z,99.90
2022-10-11T03:57:03.077Z,99.90
2022-10-11T03:59:30.038Z,99.90
2022-10-11T04:01:57.270Z,99.90
2022-10-11T04:04:24.173Z,99.90
2022-10-11T04:06:51.047Z,99.90
2022-10-11T04:09:17.983Z,99.90
2022-10-11T04:11:44.923Z,99.90
2022-10-11T04:14:11.858Z,99.90
2022-10-11T04:16:41.654Z,99.90
2022-10-11T04:19:08.487Z,99.90
2022-10-11T04:21:35.333Z,99.90
2022-10-11T04:24:02.297Z,99.90
2022-10-11T04:26:29.185Z,99.90
2022-10-11T04:28:56.127Z,99.90
2022-10-11T04:31:23.160Z,99.90
2022-10-11T04:33:50.240Z,99.90
2022-10-11T04:36:17.134Z,99.90
2022-10-11T04:38:44.034Z,99.90
2022-10-11T04:41:12.282Z,99.90
2022-10-11T04:43:39.243Z,99.90
2022-10-11T04:46:06.926Z,99.90
2022-10-11T04:48:33.950Z,99.90
2022-10-11T04:51:00.893Z,99.90
2022-10-11T04:53:28.126Z,99.90
2022-10-11T04:56:02.609Z,99.90
2022-10-11T04:58:29.901Z,99.90
2022-10-11T05:00:56.729Z,99.90
2022-10-11T05:03:23.701Z,99.90
2022-10-11T05:05:50.701Z,99.90
2022-10-11T05:08:17.562Z,99.90
2022-10-11T05:10:54.416Z,99.90
2022-10-11T05:13:21.278Z,99.90
2022-10-11T05:15:48.162Z,99.90
2022-10-11T05:18:15.027Z,99.90
2022-10-11T05:20:41.851Z,99.90
2022-10-11T05:23:08.908Z,99.90
2022-10-11T05:25:36.135Z,99.90
2022-10-11T05:28:18.525Z,99.90
2022-10-11T05:30:46.666Z,99.90
2022-10-11T05:39:47.283Z,99.90
2022-10-11T05:42:18.310Z,99.90
2022-10-11T05:44:45.164Z,99.90
2022-10-11T05:47:12.006Z,99.90
2022-10-11T05:49:42.773Z,99.90
2022-10-11T05:55:34.834Z,99.90
2022-10-11T05:58:07.522Z,99.90
2022-10-11T06:00:38.151Z,99.90
2022-10-11T06:03:05.642Z,99.90
2022-10-11T06:05:32.558Z,99.90
2022-10-11T06:07:59.479Z,99.90
2022-10-11T06:10:26.531Z,99.90
2022-10-11T06:12:53.412Z,99.90
2022-10-11T06:15:20.382Z,99.90
2022-10-11T06:17:48.290Z,99.90
2022-10-11T06:20:15.441Z,99.90
2022-10-11T06:22:43.088Z,99.90
2022-10-11T06:25:09.942Z,99.90
2022-10-11T06:27:38.369Z,99.90
2022-10-11T06:30:06.096Z,99.90
2022-10-11T06:32:32.841Z,99.90
2022-10-11T06:34:59.714Z,99.90
2022-10-11T06:37:26.654Z,99.90
2022-10-11T06:39:54.820Z,99.90
2022-10-11T06:42:23.887Z,99.90
2022-10-11T06:44:51.037Z,99.90
2022-10-11T06:47:17.870Z,99.90
2022-10-11T06:49:44.800Z,99.90
2022-10-11T06:52:19.597Z,99.90
2022-10-11T06:54:47.860Z,99.90
2022-10-11T06:57:14.919Z,99.90
2022-10-11T06:59:44.919Z,99.90
2022-10-11T07:02:22.120Z,99.90
2022-10-11T07:05:05.015Z,99.90
2022-10-11T07:07:32.901Z,99.90
2022-10-11T07:10:01.822Z,99.90
2022-10-11T07:12:28.993Z,99.90
2022-10-11T07:14:59.595Z,99.90
2022-10-11T07:17:27.237Z,99.90
2022-10-11T07:19:54.152Z,99.90
2022-10-11T07:22:21.044Z,99.90
2022-10-11T07:24:49.238Z,99.90
2022-10-11T07:27:16.037Z,99.90
2022-10-11T07:29:46.319Z,99.90
2022-10-11T07:32:13.170Z,99.90
2022-10-11T07:34:39.981Z,99.90
2022-10-11T07:51:45.414Z,99.90
2022-10-11T07:54:17.318Z,99.90
2022-10-11T07:56:44.195Z,99.90
2022-10-11T07:59:14.510Z,99.90
2022-10-11T08:04:48.801Z,99.90
2022-10-11T08:07:16.602Z,99.90
2022-10-11T08:09:44.799Z,99.90
2022-10-11T08:12:11.723Z,99.90
2022-10-11T08:14:38.923Z,99.90
2022-10-11T08:17:05.949Z,99.90
2022-10-11T08:19:32.996Z,99.90
2022-10-11T08:22:00.061Z,99.90
2022-10-11T08:24:27.423Z,99.90
2022-10-11T08:26:54.359Z,99.90
2022-10-11T08:29:21.283Z,99.90
2022-10-11T08:31:48.375Z,99.90
2022-10-11T08:34:15.656Z,99.90
2022-10-11T08:36:42.804Z,99.90
2022-10-11T08:39:12.708Z,99.90
2022-10-11T08:41:39.851Z,99.90
2022-10-11T08:44:26.978Z,99.90
2022-10-11T08:47:00.932Z,99.90
2022-10-11T08:49:30.542Z,99.90
2022-10-11T08:52:02.784Z,99.90
2022-10-11T08:54:32.832Z,99.90
2022-10-11T08:57:00.942Z,99.90
2022-10-11T08:59:33.211Z,99.90
2022-10-11T09:02:20.301Z,99.90
2022-10-11T09:04:47.648Z,99.90
2022-10-11T09:07:21.406Z,99.90
2022-10-11T09:09:54.071Z,99.90
2022-10-11T09:12:21.174Z,99.90
2022-10-11T09:14:50.933Z,99.90
2022-10-11T09:17:17.902Z,99.90
2022-10-11T09:19:47.749Z,99.90
2022-10-11T09:22:20.948Z,99.90
2022-10-11T09:25:00.072Z,99.90
2022-10-11T09:28:00.874Z,99.90
2022-10-11T09:30:19.640Z,99.90
2022-10-11T09:33:01.914Z,99.90
2022-10-11T09:35:28.878Z,99.90
2022-10-11T09:38:06.328Z,99.90
2022-10-11T09:40:39.271Z,99.90
2022-10-11T09:43:06.212Z,99.90
2022-10-11T09:45:33.368Z,99.90
2022-10-11T09:48:00.805Z,99.90
2022-10-11T09:50:29.910Z,99.90
2022-10-11T09:52:57.989Z,99.90
2022-10-11T09:55:36.238Z,99.90
2022-10-11T09:58:03.893Z,99.90
2022-10-11T10:00:34.277Z,99.90
2022-10-11T10:03:02.858Z,99.90
2022-10-11T10:05:30.671Z,99.90
2022-10-11T10:08:01.583Z,99.90
2022-10-11T10:10:34.374Z,99.90
2022-10-11T10:13:05.141Z,99.90
2022-10-11T10:15:36.028Z,99.90
2022-10-11T10:18:03.037Z,99.90
2022-10-11T10:20:33.417Z,99.90
2022-10-11T10:23:08.133Z,99.90
2022-10-11T10:25:38.439Z,99.90
2022-10-11T10:28:17.237Z,99.90
2022-10-11T10:30:59.608Z,99.90
2022-10-11T10:33:27.937Z,99.90
2022-10-11T10:36:02.608Z,99.90
2022-10-11T10:38:32.971Z,99.90
2022-10-11T10:41:06.700Z,99.90
2022-10-11T10:43:34.524Z,99.90
2022-10-11T10:46:06.184Z,99.90
2022-10-11T10:49:18.760Z,99.90
2022-10-11T10:51:45.111Z,99.90
2022-10-11T10:54:23.184Z,99.90
2022-10-11T10:56:52.284Z,99.90
2022-10-11T10:59:22.287Z,99.90
2022-10-11T11:02:35.063Z,99.90
2022-10-11T11:07:40.632Z,99.90
2022-10-11T11:10:10.570Z,99.90
2022-10-11T11:13:08.034Z,99.90
2022-10-11T11:15:38.363Z,99.90
2022-10-11T11:18:31.820Z,99.90
2022-10-11T11:21:07.898Z,99.90
2022-10-11T11:23:41.276Z,99.90
2022-10-11T11:26:09.100Z,99.90
2022-10-11T11:28:36.090Z,99.90
2022-10-11T11:31:15.391Z,99.90
2022-10-11T11:33:57.580Z,99.90
2022-10-11T11:36:39.398Z,99.90
2022-10-11T11:39:07.075Z,99.90
2022-10-11T11:41:38.468Z,99.90
2022-10-11T11:44:31.846Z,99.90
2022-10-11T11:47:00.787Z,99.90
2022-10-11T11:49:32.274Z,99.90
2022-10-11T11:51:59.595Z,99.90
2022-10-11T11:54:29.828Z,99.90
2022-10-11T11:57:15.461Z,99.90
2022-10-11T11:59:53.339Z,99.90
2022-10-11T12:02:39.227Z,99.90
2022-10-11T12:05:07.143Z,99.90
2022-10-11T12:07:35.478Z,99.90
2022-10-11T12:10:17.000Z,99.90
2022-10-11T12:12:43.983Z,99.90
2022-10-11T12:15:26.388Z,99.90
2022-10-11T12:17:53.241Z,99.90
2022-10-11T12:20:28.887Z,99.90
2022-10-11T12:22:58.522Z,99.90
2022-10-11T12:25:33.441Z,99.90
2022-10-11T12:28:01.570Z,97.60
2022-10-11T12:30:47.206Z,94.90
2022-10-11T12:33:14.197Z,99.90
2022-10-11T12:35:47.813Z,95.90
2022-10-11T12:38:16.105Z,91.80
2022-10-11T12:40:43.285Z,93.60
2022-10-11T12:43:12.253Z,94.70
2022-10-11T12:45:39.507Z,93.80
2022-10-11T12:48:06.378Z,93.20
2022-10-11T12:50:42.614Z,91.20
2022-10-11T12:53:32.752Z,84.20
2022-10-11T12:56:11.751Z,83.80
2022-10-11T12:58:41.557Z,81.30
2022-10-11T13:01:09.884Z,80.40
2022-10-11T13:03:55.522Z,85.80
2022-10-11T13:06:26.370Z,87.80
2022-10-11T13:09:07.464Z,92.20
2022-10-11T13:11:35.599Z,97.60
2022-10-11T13:14:06.786Z,99.90
2022-10-11T13:16:52.516Z,99.90
2022-10-11T13:19:21.625Z,99.90
2022-10-11T13:21:50.586Z,99.60
2022-10-11T13:24:17.902Z,99.90
2022-10-11T13:26:45.764Z,99.90
2022-10-11T13:29:27.819Z,99.90
2022-10-11T13:31:54.660Z,99.90
2022-10-11T13:34:23.468Z,99.10
2022-10-11T13:36:59.719Z,94.10
2022-10-11T13:39:31.460Z,85.60
2022-10-11T13:41:58.642Z,76.40
2022-10-11T13:44:25.605Z,68.30
2022-10-11T13:46:52.665Z,65.40
2022-10-11T13:49:26.903Z,68.70
2022-10-11T13:52:00.519Z,70.80
2022-10-11T13:54:49.348Z,69.20
2022-10-11T13:57:16.182Z,71.00
2022-10-11T13:59:43.107Z,75.90
2022-10-11T14:02:16.293Z,84.20
2022-10-11T14:04:43.142Z,88.70
2022-10-11T14:07:25.410Z,92.00
2022-10-11T14:09:52.337Z,91.40
2022-10-11T14:12:32.208Z,93.10
2022-10-11T14:14:59.906Z,93.70
2022-10-11T14:17:34.690Z,97.60
2022-10-11T14:20:19.924Z,97.90
2022-10-11T14:22:47.061Z,99.90
2022-10-11T14:25:13.940Z,99.90
2022-10-11T14:27:42.682Z,99.90
2022-10-11T14:30:31.201Z,99.90
2022-10-11T14:33:00.175Z,99.90
2022-10-11T14:35:28.349Z,99.90
2022-10-11T14:37:55.290Z,99.90
2022-10-11T14:40:22.955Z,99.90
2022-10-11T14:42:50.050Z,99.90
2022-10-11T14:45:17.198Z,99.90
2022-10-11T14:47:44.267Z,99.90
2022-10-11T14:50:27.180Z,99.90
2022-10-11T14:52:54.269Z,97.10
2022-10-11T14:55:21.146Z,99.90
2022-10-11T14:57:48.027Z,99.90
2022-10-11T15:00:20.799Z,99.90
2022-10-11T15:02:47.698Z,99.90
2022-10-11T15:05:14.653Z,99.90
2022-10-11T15:07:41.522Z,99.90
2022-10-11T15:10:22.169Z,99.90
2022-10-11T15:12:49.742Z,99.90
2022-10-11T15:15:23.411Z,99.90
2022-10-11T15:17:51.459Z,99.90
2022-10-11T15:20:23.517Z,99.90
2022-10-11T15:22:51.005Z,99.90
2022-10-11T15:25:17.843Z,99.90
2022-10-11T15:27:44.745Z,99.90
2022-10-11T15:30:15.517Z,99.90
2022-10-11T15:32:42.380Z,99.90
2022-10-11T15:35:09.363Z,99.90
2022-10-11T15:37:37.546Z,99.90
2022-10-11T15:40:18.343Z,99.90
2022-10-11T15:42:45.731Z,99.90
2022-10-11T15:45:12.573Z,99.90
2022-10-11T15:47:39.933Z,99.90
2022-10-11T15:50:12.862Z,99.90
2022-10-11T15:52:40.285Z,99.90
2022-10-11T15:55:07.263Z,99.90
2022-10-11T15:57:34.143Z,99.90
2022-10-11T16:00:01.097Z,99.90
2022-10-11T16:02:28.088Z,99.90
2022-10-11T16:04:55.207Z,99.90
2022-10-11T16:07:22.227Z,99.90
2022-10-11T16:09:49.359Z,99.90
2022-10-11T16:12:16.395Z,99.90
2022-10-11T16:14:47.093Z,99.90
2022-10-11T16:17:14.298Z,99.90
2022-10-11T16:19:41.416Z,99.90
2022-10-11T16:22:08.450Z,99.90
2022-10-11T16:24:35.374Z,99.90
2022-10-11T16:27:02.357Z,99.90
2022-10-11T16:29:29.363Z,99.90
2022-10-11T16:31:56.299Z,99.90
2022-10-11T16:34:23.994Z,99.90
2022-10-11T16:36:50.814Z,99.90
2022-10-11T16:39:18.544Z,99.90
2022-10-11T16:41:45.436Z,99.90
2022-10-11T16:44:16.054Z,99.90
2022-10-11T16:46:43.247Z,99.90
2022-10-11T16:49:10.164Z,99.90
2022-10-11T16:51:36.989Z,99.90
2022-10-11T16:54:03.918Z,99.90
2022-10-11T16:56:33.918Z,99.90
2022-10-11T16:59:03.679Z,99.90
2022-10-11T17:01:31.082Z,99.90
2022-10-11T17:03:58.707Z,99.90
2022-10-11T17:06:29.721Z,99.90
2022-10-11T17:15:43.768Z,99.90
2022-10-11T17:21:33.159Z,99.90
2022-10-11T17:24:02.052Z,99.90
2022-10-11T17:26:35.386Z,99.90
2022-10-11T17:29:10.750Z,99.90
2022-10-11T17:31:41.022Z,99.90
2022-10-11T17:53:58.975Z,99.90
2022-10-11T18:02:05.598Z,99.90
2022-10-11T18:04:37.262Z,99.90
2022-10-11T18:07:04.093Z,99.90
2022-10-11T18:09:32.602Z,99.90
2022-10-11T18:12:00.227Z,99.90
2022-10-11T18:14:27.445Z,99.90
2022-10-11T18:16:54.498Z,99.90
2022-10-11T18:19:21.281Z,99.90
2022-10-11T18:21:48.886Z,99.90
2022-10-11T18:24:18.326Z,99.90
2022-10-11T18:26:47.037Z,99.90
2022-10-11T18:29:13.950Z,99.90
2022-10-11T18:31:40.973Z,99.90
2022-10-11T18:34:10.817Z,99.90
2022-10-11T18:36:37.840Z,99.90
2022-10-11T18:39:05.722Z,99.90
2022-10-11T18:41:33.010Z,99.90
2022-10-11T18:44:01.157Z,99.90
2022-10-11T18:46:28.924Z,99.90
2022-10-11T18:48:56.044Z,99.90
2022-10-11T18:51:26.417Z,99.90
2022-10-11T18:53:53.800Z,99.90
2022-10-11T18:56:21.261Z,99.90
2022-10-11T18:58:48.894Z,99.90
2022-10-11T19:01:17.055Z,99.90
2022-10-11T19:03:44.475Z,99.90
2022-10-11T19:06:17.080Z,99.90
2022-10-11T19:08:46.488Z,99.90
2022-10-11T19:11:13.648Z,99.90
2022-10-11T19:13:40.665Z,99.90
2022-10-11T19:16:09.356Z,99.90
2022-10-11T19:18:40.441Z,99.90
2022-10-11T19:21:10.879Z,99.90
2022-10-11T19:23:39.573Z,99.90
2022-10-11T19:26:07.279Z,99.90
2022-10-11T19:28:34.802Z,99.90
2022-10-11T19:31:02.639Z,99.90
2022-10-11T19:33:29.629Z,99.90
2022-10-11T19:35:56.742Z,99.90
2022-10-11T19:38:23.926Z,99.90
2022-10-11T19:40:51.482Z,99.90
2022-10-11T19:43:18.403Z,99.90
2022-10-11T19:45:45.292Z,99.90
2022-10-11T19:48:12.202Z,99.90
2022-10-11T19:50:39.184Z,99.90
2022-10-11T19:53:06.411Z,99.90
2022-10-11T19:55:36.710Z,99.90
2022-10-11T19:58:08.155Z,99.90
2022-10-11T20:00:35.254Z,99.90
2022-10-11T20:03:02.165Z,99.90
2022-10-11T20:05:31.649Z,99.90
2022-10-11T20:07:58.483Z,99.90
2022-10-11T20:10:25.712Z,99.90
2022-10-11T20:12:52.539Z,99.90
2022-10-11T20:15:19.534Z,99.90
2022-10-11T20:17:49.222Z,99.90
2022-10-11T20:20:16.741Z,99.90
2022-10-11T20:22:43.572Z,99.90
2022-10-11T20:25:11.003Z,99.90
2022-10-11T20:27:38.164Z,99.90
2022-10-11T20:30:05.302Z,99.90
2022-10-11T20:32:32.282Z,99.90
2022-10-11T20:34:59.178Z,99.90
2022-10-11T20:37:26.272Z,99.90
2022-10-11T20:39:53.185Z,99.90
2022-10-11T20:42:20.290Z,99.90
2022-10-11T20:44:48.810Z,99.90
2022-10-11T20:47:18.666Z,99.90
2022-10-11T20:49:45.608Z,99.90
2022-10-11T20:52:12.614Z,99.90
2022-10-11T20:54:41.765Z,99.90
2022-10-11T20:57:08.813Z,99.90
2022-10-11T20:59:35.910Z,99.90
2022-10-11T21:02:02.857Z,99.90
2022-10-11T21:04:33.038Z,99.90
2022-10-11T21:06:59.999Z,99.90
2022-10-11T21:09:28.154Z,99.90
2022-10-11T21:11:55.093Z,99.90
2022-10-11T21:14:22.217Z,99.90
2022-10-11T21:16:49.066Z,99.90
2022-10-11T21:19:16.256Z,99.90
2022-10-11T21:21:44.054Z,99.90
2022-10-11T21:24:10.908Z,99.90
2022-10-11T21:26:37.835Z,99.90
2022-10-11T21:29:04.790Z,99.90
2022-10-11T21:31:34.369Z,99.90
2022-10-11T21:34:01.882Z,99.90
2022-10-11T21:36:28.961Z,99.90
2022-10-11T21:38:56.530Z,99.90
2022-10-11T21:41:23.883Z,99.90
2022-10-11T21:43:50.807Z,99.90
2022-10-11T21:46:18.858Z,99.90
2022-10-11T21:48:45.849Z,99.90
2022-10-11T21:51:16.325Z,99.90
2022-10-11T21:53:43.210Z,99.90
2022-10-11T21:56:10.077Z,99.90
2022-10-11T21:58:37.455Z,99.90
2022-10-11T22:01:04.434Z,99.90
2022-10-11T22:03:31.278Z,99.90
2022-10-11T22:05:58.108Z,99.90
2022-10-11T22:08:24.964Z,99.90
2022-10-11T22:10:57.505Z,99.90
2022-10-11T22:13:24.774Z,99.90
2022-10-11T22:15:51.700Z,99.90
2022-10-11T22:18:18.694Z,99.90
2022-10-11T22:20:45.678Z,99.90
2022-10-11T22:23:12.619Z,99.90
2022-10-11T22:25:39.499Z,99.90
2022-10-11T22:28:06.426Z,99.90
2022-10-11T22:30:33.270Z,99.90
2022-10-11T22:33:00.117Z,99.90
2022-10-11T22:35:27.001Z,99.90
2022-10-11T22:37:54.035Z,99.90
2022-10-11T22:40:20.939Z,99.90
2022-10-11T22:42:48.093Z,99.90
2022-10-11T22:45:15.008Z,99.90
2022-10-11T22:47:42.017Z,99.90
2022-10-11T22:50:09.246Z,99.90
2022-10-11T22:52:36.146Z,99.90
2022-10-11T22:55:03.005Z,99.90
2022-10-11T22:57:29.843Z,99.90
2022-10-11T22:59:56.758Z,99.90
2022-10-11T23:02:23.772Z,99.90
2022-10-11T23:04:50.640Z,99.90
2022-10-11T23:07:17.740Z,99.90
2022-10-11T23:09:44.598Z,99.90
2022-10-11T23:12:11.591Z,99.90
2022-10-11T23:14:38.464Z,99.90
2022-10-11T23:17:05.767Z,99.90
2022-10-11T23:19:32.679Z,99.90
2022-10-11T23:21:59.708Z,99.90
2022-10-11T23:24:26.540Z,99.90
2022-10-11T23:26:53.547Z,99.90
2022-10-11T23:29:20.417Z,99.90
2022-10-11T23:31:47.376Z,99.90
2022-10-11T23:34:14.788Z,99.90
2022-10-11T23:36:41.635Z,99.90
2022-10-11T23:39:10.011Z,99.90
2022-10-11T23:41:36.943Z,99.90
2022-10-11T23:44:03.813Z,99.90
2022-10-11T23:46:30.641Z,99.90
2022-10-11T23:48:57.551Z,99.90
2022-10-11T23:51:26.565Z,99.90
2022-10-11T23:53:53.530Z,99.90
2022-10-11T23:56:20.403Z,99.90
2022-10-11T23:58:47.466Z,99.90
